Time;durP1;ratioP1;P1;durP2;ratioP2;P2;SDS_P1;SDS_P2;PMS_P1;PMS_P2;Temp;Humidity;BMP_temperature;BMP_pressure;BME280_temperature;BME280_humidity;BME280_pressure;Samples;Min_cycle;Max_cycle;Signal;HPM_P1;HPM_P2
2021/01/12 00:01:45;;;;;;;12.30;7.78;;;-2.70;99.90;;;;;;5051416;28;20845;-75
2021/01/12 00:04:11;;;;;;;12.27;8.10;;;-3.00;99.90;;;;;;5050431;28;20726;-75
2021/01/12 00:06:37;;;;;;;10.30;7.55;;;-2.80;99.90;;;;;;5051472;28;20415;-75
2021/01/12 00:09:07;;;;;;;11.27;7.72;;;-3.60;99.90;;;;;;5049246;28;20389;-75
2021/01/12 00:11:32;;;;;;;13.13;7.90;;;-3.30;99.90;;;;;;5051441;28;20447;-75
2021/01/12 00:13:58;;;;;;;12.60;8.30;;;-3.20;99.90;;;;;;5050419;28;20385;-75
2021/01/12 00:16:24;;;;;;;10.65;7.47;;;-3.00;99.90;;;;;;5051559;28;20378;-76
2021/01/12 00:18:50;;;;;;;10.95;7.70;;;-1.40;99.90;;;;;;5050724;28;20382;-77
2021/01/12 00:21:15;;;;;;;9.18;7.10;;;-2.80;99.90;;;;;;5051163;28;20386;-75
2021/01/12 00:23:41;;;;;;;11.77;7.80;;;-3.30;99.90;;;;;;5051367;28;20912;-75
2021/01/12 00:26:10;;;;;;;10.60;7.20;;;-2.80;99.90;;;;;;5050778;28;20417;-76
2021/01/12 00:28:36;;;;;;;13.80;8.10;;;-3.00;99.90;;;;;;5051165;28;20472;-75
2021/01/12 00:31:04;;;;;;;12.25;7.28;;;-3.10;99.90;;;;;;5050395;28;20789;-74
2021/01/12 00:33:30;;;;;;;13.10;7.10;;;-1.80;99.90;;;;;;5051407;28;20376;-74
2021/01/12 00:35:55;;;;;;;12.18;7.45;;;-3.20;99.90;;;;;;5050363;28;20401;-75
2021/01/12 00:38:21;;;;;;;10.32;6.68;;;-2.90;99.90;;;;;;5051640;28;20378;-74
2021/01/12 00:40:46;;;;;;;9.93;7.07;;;-3.60;99.90;;;;;;5050833;28;20869;-75
2021/01/12 00:43:12;;;;;;;11.70;7.23;;;-3.00;99.90;;;;;;5051038;28;20393;-75
2021/01/12 00:45:38;;;;;;;10.93;7.55;;;-2.90;99.90;;;;;;5051579;28;20535;-74
2021/01/12 00:48:04;;;;;;;11.48;6.95;;;-2.80;99.90;;;;;;5050720;28;20878;-76
2021/01/12 00:50:29;;;;;;;11.40;6.75;;;-3.00;99.90;;;;;;5051332;28;20378;-74
2021/01/12 00:52:55;;;;;;;10.52;6.15;;;-2.80;99.90;;;;;;5050410;28;20770;-75
2021/01/12 00:55:21;;;;;;;8.52;6.18;;;-2.80;99.90;;;;;;5051167;28;20400;-74
2021/01/12 00:57:46;;;;;;;9.90;6.13;;;-2.80;99.90;;;;;;5050627;28;20382;-76
2021/01/12 01:00:12;;;;;;;11.87;6.53;;;-2.40;99.90;;;;;;5065336;28;20566;-76
2021/01/12 01:02:38;;;;;;;10.23;7.00;;;-2.90;99.90;;;;;;5051144;28;20378;-74
2021/01/12 01:05:04;;;;;;;9.63;6.13;;;-2.60;99.90;;;;;;5048809;28;20466;-74
2021/01/12 01:07:30;;;;;;;11.88;6.70;;;-2.90;99.90;;;;;;5051007;28;20381;-75
2021/01/12 01:09:56;;;;;;;11.18;5.82;;;-2.90;99.90;;;;;;5050268;28;20439;-75
2021/01/12 01:12:21;;;;;;;7.55;5.90;;;-1.90;99.90;;;;;;5050876;28;20753;-75
2021/01/12 01:14:47;;;;;;;10.10;5.65;;;-2.90;99.90;;;;;;5050599;28;20508;-75
2021/01/12 01:17:12;;;;;;;9.07;6.03;;;-2.40;99.90;;;;;;5048668;28;20377;-74
2021/01/12 01:19:38;;;;;;;7.90;5.20;;;-2.70;99.90;;;;;;5050511;28;20381;-74
2021/01/12 01:22:04;;;;;;;11.35;5.68;;;-1.50;99.90;;;;;;5049921;28;20389;-74
2021/01/12 01:24:29;;;;;;;9.45;5.75;;;-2.50;99.90;;;;;;5050603;28;20400;-75
2021/01/12 01:26:57;;;;;;;8.47;5.73;;;-0.80;99.90;;;;;;5048906;28;20470;-78
2021/01/12 01:29:23;;;;;;;9.23;5.75;;;-2.80;99.90;;;;;;5050711;28;20439;-75
2021/01/12 01:31:49;;;;;;;8.50;6.47;;;-2.80;99.90;;;;;;5050637;28;20374;-74
2021/01/12 01:34:14;;;;;;;8.70;6.10;;;-2.90;99.90;;;;;;5049758;28;20374;-76
2021/01/12 01:36:40;;;;;;;9.50;6.57;;;-2.60;99.90;;;;;;5050872;28;20400;-75
2021/01/12 01:39:06;;;;;;;9.65;6.05;;;-2.80;99.90;;;;;;5049532;28;20912;-76
2021/01/12 01:41:32;;;;;;;8.60;5.77;;;-2.80;99.90;;;;;;5050334;28;20460;-76
2021/01/12 01:43:58;;;;;;;10.90;7.45;;;-2.50;99.90;;;;;;5049511;28;20380;-75
2021/01/12 01:46:24;;;;;;;8.93;6.10;;;-2.60;99.90;;;;;;5050229;28;20417;-75
2021/01/12 01:48:50;;;;;;;9.30;5.78;;;-2.10;99.90;;;;;;5066185;28;20381;-74
2021/01/12 01:51:16;;;;;;;10.13;6.20;;;-2.50;99.90;;;;;;5048431;28;21014;-75
2021/01/12 01:53:43;;;;;;;9.98;6.13;;;-2.50;99.90;;;;;;5050036;28;20408;-75
2021/01/12 01:56:09;;;;;;;11.02;6.50;;;-2.70;99.90;;;;;;5049395;28;20389;-75
2021/01/12 01:58:41;;;;;;;10.57;6.10;;;-2.60;99.90;;;;;;5050499;28;20431;-77
2021/01/12 02:01:07;;;;;;;10.38;6.65;;;-2.00;99.90;;;;;;5049673;28;20377;-76
2021/01/12 02:03:41;;;;;;;10.77;6.30;;;-2.80;99.90;;;;;;5049043;28;20386;-74
2021/01/12 02:06:26;;;;;;;9.23;6.55;;;-2.40;99.90;;;;;;5049583;28;20423;-75
2021/01/12 02:09:15;;;;;;;9.27;6.35;;;-2.70;99.90;;;;;;5065687;28;20390;-75
2021/01/12 02:11:43;;;;;;;8.05;5.95;;;-2.50;99.90;;;;;;5046653;28;20397;-75
2021/01/12 02:14:15;;;;;;;7.30;5.20;;;-2.70;99.90;;;;;;5049779;28;20386;-76
2021/01/12 02:16:41;;;;;;;8.15;5.28;;;-2.20;99.90;;;;;;5050099;28;20389;-75
2021/01/12 02:19:10;;;;;;;7.63;5.38;;;-1.30;99.90;;;;;;5049679;28;20385;-75
2021/01/12 02:21:44;;;;;;;8.00;5.55;;;-2.40;99.90;;;;;;5048858;28;20390;-74
2021/01/12 02:24:10;;;;;;;7.93;5.55;;;-0.20;99.90;;;;;;5048177;28;20425;-77
2021/01/12 02:26:35;;;;;;;8.60;5.43;;;-2.50;99.90;;;;;;5049575;28;20870;-74
2021/01/12 02:29:01;;;;;;;8.18;5.38;;;-0.70;99.90;;;;;;5048576;28;20476;-75
2021/01/12 02:31:33;;;;;;;8.88;5.85;;;-2.20;99.90;;;;;;5049697;28;20761;-74
2021/01/12 02:34:02;;;;;;;10.07;5.40;;;-2.70;99.90;;;;;;5048106;28;20424;-77
2021/01/12 02:36:30;;;;;;;9.50;5.80;;;-1.70;99.90;;;;;;5049714;28;20880;-75
2021/01/12 02:39:00;;;;;;;8.15;5.50;;;-2.30;99.90;;;;;;5048455;28;20389;-77
2021/01/12 02:41:32;;;;;;;10.55;6.03;;;-2.40;99.90;;;;;;5049523;28;20446;-76
2021/01/12 02:43:58;;;;;;;9.77;5.40;;;-2.50;99.90;;;;;;5047994;28;20956;-78
2021/01/12 02:46:24;;;;;;;7.23;5.50;;;-2.80;99.90;;;;;;5048994;28;20512;-74
2021/01/12 02:48:50;;;;;;;10.00;5.90;;;-2.20;99.90;;;;;;5048325;28;20485;-74
2021/01/12 02:51:15;;;;;;;8.90;6.00;;;-0.10;99.90;;;;;;5048645;28;20385;-74
2021/01/12 02:53:41;;;;;;;10.93;6.82;;;-2.50;99.90;;;;;;5049503;28;20862;-74
2021/01/12 02:56:06;;;;;;;11.25;7.00;;;-2.00;99.90;;;;;;5048584;28;20393;-74
2021/01/12 02:58:32;;;;;;;9.10;5.50;;;-2.10;99.90;;;;;;5049774;28;20731;-76
2021/01/12 03:00:58;;;;;;;9.77;6.00;;;-2.30;99.90;;;;;;5049146;28;20484;-79
2021/01/12 03:03:23;;;;;;;8.43;5.88;;;-1.60;99.90;;;;;;5050339;28;20404;-75
2021/01/12 03:05:49;;;;;;;8.93;5.65;;;-2.10;99.90;;;;;;5051871;28;20410;-75
2021/01/12 03:08:15;;;;;;;10.43;6.70;;;-2.20;99.90;;;;;;5052675;28;20758;-75
2021/01/12 03:10:41;;;;;;;8.00;5.60;;;-2.20;99.90;;;;;;5053154;28;20466;-75
2021/01/12 03:13:06;;;;;;;9.98;6.78;;;-0.20;99.90;;;;;;5051133;28;20397;-76
2021/01/12 03:15:34;;;;;;;8.67;5.90;;;-1.60;99.90;;;;;;5053354;28;20854;-75
2021/01/12 03:18:00;;;;;;;9.20;6.13;;;-1.70;99.90;;;;;;5052735;28;20393;-79
2021/01/12 03:20:26;;;;;;;8.37;5.80;;;-1.80;99.90;;;;;;5051460;28;20413;-75
2021/01/12 03:22:52;;;;;;;7.80;5.90;;;-2.00;99.90;;;;;;5053172;28;20388;-75
2021/01/12 03:25:20;;;;;;;9.43;6.25;;;-2.10;99.90;;;;;;5051906;28;20445;-75
2021/01/12 03:27:49;;;;;;;9.35;5.72;;;-1.20;99.90;;;;;;5052616;28;20725;-75
2021/01/12 03:30:16;;;;;;;8.18;5.53;;;-0.90;99.90;;;;;;5052032;28;20382;-76
2021/01/12 03:32:42;;;;;;;8.57;5.65;;;-1.40;99.90;;;;;;5052754;28;20393;-75
2021/01/12 03:35:10;;;;;;;7.13;5.35;;;-1.90;99.90;;;;;;5051831;28;20869;-76
2021/01/12 03:37:36;;;;;;;6.18;4.82;;;-1.20;99.90;;;;;;5052889;28;20766;-75
2021/01/12 03:40:07;;;;;;;3.85;2.35;;;-1.00;99.90;;;;;;5050955;28;20454;-78
2021/01/12 03:42:33;;;;;;;2.70;2.10;;;0.10;99.90;;;;;;5052405;28;20440;-76
2021/01/12 03:44:58;;;;;;;2.30;1.60;;;1.00;99.90;;;;;;5051105;28;20398;-75
2021/01/12 03:47:24;;;;;;;2.00;1.48;;;1.40;99.90;;;;;;5050435;28;20389;-75
2021/01/12 03:49:49;;;;;;;1.50;1.20;;;1.40;99.90;;;;;;5051179;28;20431;-76
2021/01/12 03:52:15;;;;;;;3.60;1.20;;;2.00;99.90;;;;;;5051663;28;20436;-77
2021/01/12 03:54:41;;;;;;;1.80;1.30;;;2.00;99.90;;;;;;5051238;28;20389;-77
2021/01/12 03:57:06;;;;;;;1.80;1.20;;;3.20;99.90;;;;;;5051593;28;20458;-77
2021/01/12 03:59:32;;;;;;;2.53;1.60;;;4.30;99.90;;;;;;5051338;28;20381;-77
2021/01/12 04:01:58;;;;;;;1.55;1.30;;;3.30;99.90;;;;;;5052618;28;20417;-78
2021/01/12 04:04:23;;;;;;;1.70;0.85;;;2.40;99.90;;;;;;5051372;28;20393;-77
2021/01/12 04:06:49;;;;;;;1.30;0.90;;;3.50;99.90;;;;;;5052264;28;20397;-77
2021/01/12 04:09:14;;;;;;;2.00;1.37;;;3.80;99.90;;;;;;5050209;28;20972;-77
2021/01/12 04:11:40;;;;;;;1.00;0.90;;;2.50;99.90;;;;;;5052010;28;20378;-78
2021/01/12 04:14:08;;;;;;;2.30;1.40;;;3.00;99.90;;;;;;5050972;28;20394;-81
2021/01/12 04:16:34;;;;;;;1.50;1.20;;;3.10;99.90;;;;;;5051697;28;20785;-77
2021/01/12 04:19:00;;;;;;;1.42;1.15;;;2.70;99.90;;;;;;5051997;28;20382;-77
2021/01/12 04:21:25;;;;;;;1.58;1.45;;;2.90;99.90;;;;;;5051030;28;21164;-76
2021/01/12 04:23:51;;;;;;;1.77;1.20;;;3.20;99.90;;;;;;5051785;28;20382;-77
2021/01/12 04:26:17;;;;;;;1.50;1.30;;;3.30;99.90;;;;;;5050755;28;20401;-78
2021/01/12 04:28:43;;;;;;;1.23;1.13;;;2.90;99.90;;;;;;5051632;28;20389;-77
2021/01/12 04:31:09;;;;;;;2.40;1.50;;;2.90;99.90;;;;;;5050632;28;20416;-78
2021/01/12 04:33:35;;;;;;;1.20;1.00;;;5.20;99.90;;;;;;5051668;28;20494;-77
2021/01/12 04:36:00;;;;;;;1.60;1.30;;;3.10;99.90;;;;;;5051467;28;20496;-77
2021/01/12 04:38:26;;;;;;;1.88;1.25;;;2.90;99.90;;;;;;5050539;28;20442;-78
2021/01/12 04:40:52;;;;;;;2.10;1.50;;;2.80;99.90;;;;;;5051528;28;20457;-75
2021/01/12 04:43:17;;;;;;;1.70;1.40;;;3.10;99.90;;;;;;5050444;28;20389;-77
2021/01/12 04:45:43;;;;;;;1.60;1.40;;;2.80;99.90;;;;;;5050062;28;20825;-77
2021/01/12 04:48:09;;;;;;;2.10;1.30;;;;;;;;;;5049222;28;20711;-78
2021/01/12 04:50:35;;;;;;;2.10;1.40;;;2.70;99.90;;;;;;5050199;28;20739;-77
2021/01/12 04:53:00;;;;;;;2.20;1.40;;;2.50;99.90;;;;;;5051010;28;20393;-77
2021/01/12 04:55:26;;;;;;;3.85;1.75;;;2.90;99.90;;;;;;5050237;28;20381;-79
2021/01/12 04:57:53;;;;;;;2.45;1.60;;;5.60;99.90;;;;;;5050970;28;20468;-78
2021/01/12 05:00:23;;;;;;;2.55;1.70;;;4.60;99.90;;;;;;5050170;28;20377;-77
2021/01/12 05:03:07;;;;;;;2.42;1.30;;;3.10;99.90;;;;;;5051424;28;20464;-78
2021/01/12 05:05:35;;;;;;;1.60;1.30;;;3.20;99.90;;;;;;5050962;28;20484;-77
2021/01/12 05:08:13;;;;;;;1.80;1.35;;;2.90;99.90;;;;;;5050980;28;20392;-77
2021/01/12 05:10:43;;;;;;;1.60;1.20;;;3.00;99.90;;;;;;5051277;28;20857;-77
2021/01/12 05:13:11;;;;;;;2.00;1.40;;;5.30;99.90;;;;;;5050894;28;20432;-81
2021/01/12 05:15:40;;;;;;;2.00;1.50;;;3.70;99.90;;;;;;5051286;28;20742;-77
2021/01/12 05:18:08;;;;;;;2.90;1.63;;;3.40;99.90;;;;;;5051165;28;20385;-80
2021/01/12 05:21:04;;;;;;;2.38;1.80;;;3.10;99.90;;;;;;5051078;28;20399;-78
2021/01/12 05:23:34;;;;;;;1.98;1.42;;;2.90;99.90;;;;;;5045700;28;20390;-76
2021/01/12 05:26:01;;;;;;;1.90;1.70;;;5.10;99.90;;;;;;5050829;28;20439;-77
2021/01/12 05:28:28;;;;;;;1.92;1.40;;;2.90;99.90;;;;;;5049884;28;20552;-78
2021/01/12 05:30:55;;;;;;;1.98;1.50;;;3.10;99.90;;;;;;5049825;28;20814;-77
2021/01/12 05:33:20;;;;;;;1.60;1.50;;;4.60;99.90;;;;;;5049128;28;20389;-77
2021/01/12 05:35:48;;;;;;;4.72;1.50;;;3.20;99.90;;;;;;5050022;28;20739;-77
2021/01/12 05:38:27;;;;;;;1.85;1.15;;;4.80;99.90;;;;;;5050649;28;20377;-78
2021/01/12 05:40:55;;;;;;;1.90;1.35;;;5.00;99.90;;;;;;5051342;28;20389;-77
2021/01/12 05:43:36;;;;;;;2.53;1.60;;;4.60;99.90;;;;;;5049210;28;20497;-77
2021/01/12 05:46:11;;;;;;;1.50;1.40;;;3.10;99.90;;;;;;5050499;28;20417;-77
2021/01/12 05:48:39;;;;;;;2.20;1.40;;;3.20;99.90;;;;;;5051327;28;20423;-77
2021/01/12 05:51:11;;;;;;;1.52;1.35;;;5.80;99.90;;;;;;5049879;28;20766;-78
2021/01/12 05:54:03;;;;;;;2.20;1.50;;;3.20;99.90;;;;;;5051084;28;20382;-78
2021/01/12 05:56:29;;;;;;;1.50;1.40;;;3.00;99.90;;;;;;5049911;28;20481;-77
2021/01/12 05:58:57;;;;;;;1.80;1.38;;;3.30;99.90;;;;;;5051067;28;20377;-77
2021/01/12 06:01:44;;;;;;;1.80;1.40;;;5.00;99.90;;;;;;5051451;28;20386;-77
2021/01/12 06:04:12;;;;;;;1.63;1.35;;;3.30;99.90;;;;;;5050828;28;20405;-82
2021/01/12 06:06:39;;;;;;;1.48;1.05;;;3.30;99.90;;;;;;5050170;28;20500;-75
2021/01/12 06:09:09;;;;;;;1.70;1.10;;;3.30;99.90;;;;;;5050881;28;20449;-75
2021/01/12 06:11:36;;;;;;;1.60;1.20;;;5.60;99.90;;;;;;5050689;28;20377;-76
2021/01/12 06:14:08;;;;;;;1.33;0.80;;;3.50;99.90;;;;;;5050568;28;20416;-76
2021/01/12 06:16:35;;;;;;;1.20;0.95;;;3.60;99.90;;;;;;5050635;28;20393;-77
2021/01/12 06:19:13;;;;;;;1.30;1.00;;;3.50;99.90;;;;;;5050911;28;20381;-77
2021/01/12 06:22:01;;;;;;;1.42;1.13;;;3.50;99.90;;;;;;5050568;28;20891;-77
2021/01/12 06:24:38;;;;;;;1.65;1.08;;;4.90;99.90;;;;;;5048937;28;20480;-77
2021/01/12 06:27:11;;;;;;;1.30;1.10;;;4.40;99.90;;;;;;5050063;28;20417;-76
2021/01/12 06:29:38;;;;;;;1.65;1.23;;;5.90;99.90;;;;;;5050145;28;20393;-77
2021/01/12 06:32:05;;;;;;;2.00;1.00;;;3.90;99.90;;;;;;5050492;28;20435;-77
2021/01/12 06:34:32;;;;;;;1.10;1.00;;;3.40;99.90;;;;;;5049898;28;20416;-76
2021/01/12 06:36:59;;;;;;;1.50;1.00;;;3.30;99.90;;;;;;5049362;28;20877;-76
2021/01/12 06:39:33;;;;;;;1.00;0.80;;;4.90;99.90;;;;;;5052990;28;20464;-76
2021/01/12 06:42:04;;;;;;;1.70;1.05;;;3.40;99.90;;;;;;5054927;28;20389;-77
2021/01/12 06:44:33;;;;;;;0.95;0.85;;;3.70;99.90;;;;;;5053676;28;20406;-76
2021/01/12 06:46:59;;;;;;;1.60;1.00;;;3.50;99.90;;;;;;5054620;28;20413;-75
2021/01/12 06:49:27;;;;;;;2.30;1.30;;;5.80;99.90;;;;;;5054007;28;20382;-76
2021/01/12 06:52:00;;;;;;;1.90;1.00;;;5.80;99.90;;;;;;5053148;28;20401;-76
2021/01/12 06:54:35;;;;;;;2.40;1.50;;;3.40;99.90;;;;;;5053580;28;20465;-78
2021/01/12 06:57:03;;;;;;;1.88;1.40;;;3.40;99.90;;;;;;5054496;28;20390;-77
2021/01/12 06:59:52;;;;;;;1.07;0.90;;;3.20;99.90;;;;;;5053026;28;20785;-79
2021/01/12 07:02:25;;;;;;;1.23;1.13;;;3.30;99.90;;;;;;5053739;28;20389;-78
2021/01/12 07:05:09;;;;;;;1.52;1.30;;;3.60;99.90;;;;;;5054303;28;20382;-77
2021/01/12 07:07:52;;;;;;;1.50;1.38;;;3.20;99.90;;;;;;5053489;28;20781;-76
2021/01/12 07:10:22;;;;;;;1.67;1.30;;;3.30;99.90;;;;;;5054453;28;20392;-78
2021/01/12 07:12:48;;;;;;;1.50;1.10;;;3.10;99.90;;;;;;5060727;28;20412;-80
2021/01/12 07:15:19;;;;;;;1.60;1.10;;;3.60;99.90;;;;;;5054053;28;20385;-82
2021/01/12 07:17:53;;;;;;;1.50;1.40;;;4.90;99.90;;;;;;5055007;28;20403;-79
2021/01/12 07:20:20;;;;;;;1.10;1.00;;;3.30;99.90;;;;;;5070660;28;20705;-81
2021/01/12 07:22:57;;;;;;;1.63;1.30;;;4.00;99.90;;;;;;5074086;28;20376;-80
2021/01/12 07:25:25;;;;;;;1.52;1.10;;;5.40;99.90;;;;;;5073253;28;20420;-79
2021/01/12 07:28:01;;;;;;;1.63;1.50;;;5.30;99.90;;;;;;5069059;28;20903;-79
2021/01/12 07:30:27;;;;;;;1.30;1.10;;;3.30;99.90;;;;;;5073493;28;20402;-81
2021/01/12 07:33:02;;;;;;;1.83;1.45;;;4.10;99.90;;;;;;5073785;28;20380;-79
2021/01/12 07:35:28;;;;;;;1.63;1.52;;;5.00;99.90;;;;;;5073646;28;20375;-79
2021/01/12 07:37:54;;;;;;;2.35;1.60;;;3.90;99.90;;;;;;5072889;28;20390;-80
2021/01/12 07:40:20;;;;;;;1.30;1.13;;;3.20;99.90;;;;;;5071840;28;20395;-78
2021/01/12 07:42:54;;;;;;;2.15;1.90;;;5.30;99.90;;;;;;5073368;28;20741;-79
2021/01/12 07:45:23;;;;;;;1.60;1.10;;;3.30;99.90;;;;;;5057589;28;20429;-79
2021/01/12 07:47:53;;;;;;;2.00;1.80;;;3.70;99.90;;;;;;5052092;28;20436;-78
2021/01/12 07:50:20;;;;;;;2.08;1.75;;;3.30;99.90;;;;;;5052631;28;20397;-79
2021/01/12 07:52:47;;;;;;;1.90;1.77;;;5.30;99.90;;;;;;5053617;28;20528;-79
2021/01/12 07:55:13;;;;;;;1.80;1.50;;;3.20;99.90;;;;;;5052603;28;20385;-78
2021/01/12 07:57:39;;;;;;;2.30;1.20;;;3.80;99.90;;;;;;5051220;28;20393;-77
2021/01/12 08:00:09;;;;;;;3.38;1.60;;;3.20;99.90;;;;;;5052899;28;20374;-82
2021/01/12 08:02:37;;;;;;;1.80;1.40;;;3.30;99.90;;;;;;5052428;28;20377;-78
2021/01/12 08:05:05;;;;;;;4.68;1.80;;;3.70;99.90;;;;;;5053185;28;20389;-81
2021/01/12 08:07:30;;;;;;;2.30;1.67;;;2.60;99.90;;;;;;5056388;28;20447;-78
2021/01/12 08:09:58;;;;;;;2.35;1.70;;;3.70;99.90;;;;;;5058487;28;20413;-79
2021/01/12 08:12:24;;;;;;;1.70;1.50;;;4.60;99.90;;;;;;5069255;28;20391;-79
2021/01/12 08:14:53;;;;;;;1.50;1.30;;;3.40;99.90;;;;;;5070917;28;20380;-78
2021/01/12 08:17:28;;;;;;;2.08;1.40;;;3.80;99.90;;;;;;5051673;28;20385;-81
2021/01/12 08:19:55;;;;;;;1.48;1.00;;;4.10;99.90;;;;;;5052562;28;20419;-79
2021/01/12 08:22:24;;;;;;;1.40;1.05;;;4.40;99.90;;;;;;5052035;28;20400;-79
2021/01/12 08:24:49;;;;;;;1.50;1.40;;;3.40;99.90;;;;;;5066031;28;20384;-77
2021/01/12 08:27:21;;;;;;;1.38;1.13;;;3.60;99.90;;;;;;5062829;28;20409;-81
2021/01/12 08:29:50;;;;;;;1.67;1.20;;;;;;;;;;5052742;28;20396;-79
2021/01/12 08:32:22;;;;;;;2.00;1.20;;;;;;;;;;5052504;28;20378;-80
2021/01/12 08:35:10;;;;;;;1.20;1.10;;;3.20;99.90;;;;;;5052560;28;20373;-80
2021/01/12 08:37:38;;;;;;;1.50;1.30;;;3.80;99.90;;;;;;5051810;28;20416;-78
2021/01/12 08:40:07;;;;;;;1.00;0.90;;;4.70;99.90;;;;;;5052557;28;20420;-81
2021/01/12 08:42:38;;;;;;;1.02;0.90;;;3.90;99.90;;;;;;5070903;28;20399;-81
2021/01/12 08:45:17;;;;;;;0.90;0.80;;;5.00;99.90;;;;;;5072433;28;20970;-80
2021/01/12 08:47:45;;;;;;;1.10;0.70;;;3.80;99.90;;;;;;5071860;28;20375;-79
2021/01/12 08:50:11;;;;;;;1.08;0.80;;;3.90;99.90;;;;;;5072429;28;20434;-79
2021/01/12 08:52:44;;;;;;;1.40;1.10;;;4.00;99.90;;;;;;5071702;28;20726;-78
2021/01/12 08:55:23;;;;;;;1.23;0.80;;;4.00;99.90;;;;;;5072331;28;20376;-80
2021/01/12 08:58:03;;;;;;;1.10;1.00;;;3.10;99.90;;;;;;5072349;28;20384;-80
2021/01/12 09:00:34;;;;;;;1.10;0.90;;;3.50;99.90;;;;;;5070986;28;20419;-80
2021/01/12 09:03:05;;;;;;;1.08;0.80;;;4.20;99.90;;;;;;5072166;28;20391;-81
2021/01/12 09:05:38;;;;;;;1.90;1.23;;;3.90;99.90;;;;;;5071331;28;20450;-79
2021/01/12 09:08:05;;;;;;;0.75;0.75;;;5.80;99.90;;;;;;5072025;28;20420;-80
2021/01/12 09:10:32;;;;;;;1.20;1.02;;;;;;;;;;5071019;28;20380;-79
2021/01/12 09:12:59;;;;;;;1.60;1.38;;;3.70;99.90;;;;;;5071808;28;20379;-78
2021/01/12 09:15:30;;;;;;;1.63;1.15;;;4.10;99.90;;;;;;5069913;28;20876;-75
2021/01/12 09:18:17;;;;;;;1.65;1.08;;;3.90;99.90;;;;;;5071757;28;20391;-79
2021/01/12 09:20:51;;;;;;;1.20;1.00;;;3.60;99.90;;;;;;5071136;28;20471;-78
2021/01/12 09:23:17;;;;;;;1.10;0.90;;;4.50;99.90;;;;;;5071749;28;20798;-77
2021/01/12 09:25:51;;;;;;;1.07;0.80;;;3.80;99.90;;;;;;5071084;28;20498;-77
2021/01/12 09:28:18;;;;;;;1.58;1.10;;;3.50;99.90;;;;;;5053933;28;20768;-79
2021/01/12 09:30:46;;;;;;;1.30;1.00;;;3.40;99.90;;;;;;5049947;28;20396;-79
2021/01/12 09:33:22;;;;;;;0.90;0.80;;;3.70;99.90;;;;;;5051129;28;20433;-79
2021/01/12 09:35:49;;;;;;;0.70;0.60;;;3.30;99.90;;;;;;5031855;28;20383;-80
2021/01/12 09:38:14;;;;;;;1.50;1.08;;;3.20;99.90;;;;;;5031726;28;20460;-77
2021/01/12 09:40:40;;;;;;;1.00;1.00;;;3.40;99.90;;;;;;5065768;28;20941;-79
2021/01/12 09:43:06;;;;;;;1.00;0.90;;;3.50;99.90;;;;;;5051610;28;20401;-78
2021/01/12 09:45:33;;;;;;;1.10;0.80;;;4.60;99.90;;;;;;5049169;28;20898;-78
2021/01/12 09:48:01;;;;;;;1.80;1.30;;;4.50;99.90;;;;;;5051788;28;20397;-80
2021/01/12 09:50:27;;;;;;;0.70;0.70;;;3.70;99.90;;;;;;5050933;28;20431;-82
2021/01/12 09:52:53;;;;;;;1.30;0.70;;;3.70;99.90;;;;;;5051754;28;20852;-80
2021/01/12 09:55:18;;;;;;;0.90;0.80;;;4.30;99.90;;;;;;5051361;28;20381;-81
2021/01/12 09:57:47;;;;;;;1.20;0.60;;;3.90;99.90;;;;;;5050974;28;20381;-79
2021/01/12 10:00:13;;;;;;;1.08;0.70;;;5.00;99.90;;;;;;5051216;28;20869;-81
2021/01/12 10:02:39;;;;;;;1.10;0.75;;;3.70;99.90;;;;;;5049350;28;20405;-79
2021/01/12 10:05:05;;;;;;;1.15;0.77;;;3.80;99.90;;;;;;5050878;28;20385;-79
2021/01/12 10:07:31;;;;;;;1.30;0.90;;;3.80;99.90;;;;;;5050229;28;20385;-81
2021/01/12 10:09:56;;;;;;;0.82;0.73;;;3.90;99.90;;;;;;5050980;28;20443;-82
2021/01/12 10:12:22;;;;;;;1.20;0.70;;;5.80;99.90;;;;;;5050506;28;20393;-81
2021/01/12 10:14:48;;;;;;;1.00;0.80;;;5.70;99.90;;;;;;5050627;28;20418;-81
2021/01/12 10:17:13;;;;;;;1.00;0.90;;;3.80;99.90;;;;;;5051304;28;20828;-82
2021/01/12 10:19:39;;;;;;;0.90;0.80;;;4.60;99.90;;;;;;5050699;28;20385;-81
2021/01/12 10:22:05;;;;;;;0.60;0.60;;;4.40;99.90;;;;;;5050801;28;20464;-81
2021/01/12 10:24:30;;;;;;;1.10;0.60;;;5.00;99.90;;;;;;5050871;28;20377;-81
2021/01/12 10:26:59;;;;;;;0.90;0.60;;;4.10;99.90;;;;;;5050778;28;20463;-80
2021/01/12 10:29:29;;;;;;;1.23;0.63;;;4.00;99.90;;;;;;5050467;28;20381;-82
2021/01/12 10:31:55;;;;;;;0.65;0.60;;;4.50;99.90;;;;;;5051965;28;20381;-81
2021/01/12 10:34:21;;;;;;;0.60;0.50;;;5.30;99.90;;;;;;5051850;28;20462;-82
2021/01/12 10:36:51;;;;;;;1.63;0.67;;;4.00;99.90;;;;;;5051587;28;20389;-82
2021/01/12 10:39:17;;;;;;;0.68;0.50;;;4.30;99.90;;;;;;5052105;28;20374;-82
2021/01/12 10:41:43;;;;;;;0.70;0.60;;;5.80;99.90;;;;;;5066894;28;20699;-77
2021/01/12 10:44:09;;;;;;;1.05;0.60;;;5.40;99.90;;;;;;5057862;28;20396;-76
2021/01/12 10:46:34;;;;;;;0.70;0.57;;;5.70;99.90;;;;;;5060139;28;20423;-81
2021/01/12 10:49:00;;;;;;;0.82;0.50;;;4.30;99.90;;;;;;5062145;28;20442;-81
2021/01/12 10:51:26;;;;;;;0.60;0.55;;;4.10;99.90;;;;;;5061511;28;20381;-83
2021/01/12 10:53:52;;;;;;;0.93;0.50;;;4.00;99.90;;;;;;5058030;28;20389;-82
2021/01/12 10:56:17;;;;;;;1.10;0.47;;;4.10;99.90;;;;;;5053540;28;20377;-83
2021/01/12 10:58:43;;;;;;;0.50;0.50;;;4.70;99.90;;;;;;5051625;28;20388;-84
2021/01/12 11:01:13;;;;;;;0.80;0.60;;;6.00;99.90;;;;;;5052305;28;20388;-80
2021/01/12 11:03:38;;;;;;;0.50;0.50;;;4.30;99.90;;;;;;5051499;28;20389;-84
2021/01/12 11:06:04;;;;;;;1.00;0.70;;;3.80;99.90;;;;;;5051550;28;20424;-83
2021/01/12 11:08:31;;;;;;;0.90;0.60;;;4.00;99.90;;;;;;5051686;28;20420;-81
2021/01/12 11:10:56;;;;;;;0.50;0.50;;;3.90;99.90;;;;;;5050359;28;20861;-76
2021/01/12 11:13:22;;;;;;;0.60;0.50;;;3.70;99.90;;;;;;5051825;28;20385;-80
2021/01/12 11:15:48;;;;;;;0.80;0.60;;;4.00;99.90;;;;;;5049477;28;20420;-79
2021/01/12 11:18:14;;;;;;;0.97;0.50;;;3.50;99.90;;;;;;5051069;28;20458;-81
2021/01/12 11:20:41;;;;;;;1.10;0.70;;;3.50;99.90;;;;;;5050435;28;20382;-81
2021/01/12 11:23:07;;;;;;;0.75;0.60;;;3.40;99.90;;;;;;5051365;28;20389;-83
2021/01/12 11:25:33;;;;;;;2.70;0.57;;;3.80;99.90;;;;;;5053739;28;20409;-82
2021/01/12 11:27:59;;;;;;;0.60;0.60;;;3.40;99.90;;;;;;5054518;28;20869;-81
2021/01/12 11:30:25;;;;;;;0.70;0.60;;;3.40;99.90;;;;;;5054823;28;20858;-86
2021/01/12 11:32:52;;;;;;;0.90;0.60;;;3.20;99.90;;;;;;5053828;28;20381;-81
2021/01/12 11:35:18;;;;;;;1.10;0.50;;;3.30;99.90;;;;;;5054620;28;20386;-83
2021/01/12 11:37:46;;;;;;;2.00;0.55;;;3.20;99.90;;;;;;5052173;28;20399;-85
2021/01/12 11:40:12;;;;;;;0.70;0.50;;;3.10;99.90;;;;;;5054416;28;20799;-78
2021/01/12 11:42:38;;;;;;;0.63;0.40;;;3.20;99.90;;;;;;5053293;28;20700;-76
2021/01/12 11:45:04;;;;;;;0.70;0.63;;;4.70;99.90;;;;;;5053751;28;20412;-80
2021/01/12 11:47:30;;;;;;;0.90;0.60;;;3.00;99.90;;;;;;5053456;28;20822;-81
2021/01/12 11:49:56;;;;;;;0.60;0.50;;;4.90;99.90;;;;;;5053684;28;20477;-78
2021/01/12 11:52:22;;;;;;;0.50;0.40;;;3.00;99.90;;;;;;5053767;28;20416;-78
2021/01/12 11:54:48;;;;;;;0.73;0.50;;;4.60;99.90;;;;;;5053268;28;20393;-76
2021/01/12 11:57:13;;;;;;;1.50;0.70;;;2.90;99.90;;;;;;5053603;28;20465;-77
2021/01/12 11:59:39;;;;;;;0.60;0.50;;;3.20;99.90;;;;;;5052749;28;20469;-76
2021/01/12 12:02:05;;;;;;;0.50;0.50;;;2.70;99.90;;;;;;5053347;28;20858;-75
2021/01/12 12:04:31;;;;;;;0.85;0.43;;;2.90;99.90;;;;;;5052740;28;20382;-77
2021/01/12 12:07:00;;;;;;;0.80;0.50;;;3.80;99.90;;;;;;5053234;28;20405;-75
2021/01/12 12:09:27;;;;;;;0.70;0.40;;;2.70;99.90;;;;;;5053212;28;20394;-77
2021/01/12 12:11:52;;;;;;;0.82;0.47;;;3.10;99.90;;;;;;5052508;28;20484;-77
2021/01/12 12:14:18;;;;;;;0.47;0.35;;;2.90;99.90;;;;;;5053216;28;20974;-77
2021/01/12 12:16:46;;;;;;;0.47;0.30;;;2.50;99.90;;;;;;5052501;28;20397;-78
2021/01/12 12:19:14;;;;;;;0.60;0.50;;;2.50;99.90;;;;;;5053200;28;20382;-78
2021/01/12 12:21:49;;;;;;;1.20;0.50;;;2.60;99.90;;;;;;5052282;28;20800;-77
2021/01/12 12:24:16;;;;;;;0.90;0.50;;;4.10;99.90;;;;;;5053007;28;20476;-78
2021/01/12 12:26:43;;;;;;;0.40;0.30;;;2.60;99.90;;;;;;5052332;28;20479;-80
2021/01/12 12:29:08;;;;;;;0.75;0.50;;;4.40;99.90;;;;;;5053425;28;20373;-78
2021/01/12 12:31:34;;;;;;;0.50;0.40;;;3.70;99.90;;;;;;5052314;28;20382;-78
2021/01/12 12:34:00;;;;;;;0.40;0.30;;;2.60;99.90;;;;;;5053248;28;20431;-79
2021/01/12 12:36:26;;;;;;;0.40;0.30;;;3.60;99.90;;;;;;5052120;28;20381;-79
2021/01/12 12:38:51;;;;;;;0.40;0.40;;;3.30;99.90;;;;;;5052223;28;20935;-76
2021/01/12 12:41:18;;;;;;;0.70;0.60;;;4.50;99.90;;;;;;5052651;28;20741;-79
2021/01/12 12:43:45;;;;;;;0.50;0.30;;;2.80;99.90;;;;;;5051769;28;20821;-76
2021/01/12 12:46:12;;;;;;;0.50;0.40;;;3.20;99.90;;;;;;5052607;28;20417;-77
2021/01/12 12:48:38;;;;;;;0.40;0.30;;;3.00;99.90;;;;;;5051887;28;20396;-78
2021/01/12 12:51:05;;;;;;;1.10;0.40;;;3.00;99.90;;;;;;5052556;28;20476;-77
2021/01/12 12:53:33;;;;;;;0.60;0.50;;;2.80;99.90;;;;;;5052336;28;20377;-79
2021/01/12 12:56:00;;;;;;;0.60;0.50;;;3.00;99.90;;;;;;5052214;28;20425;-79
2021/01/12 12:58:27;;;;;;;0.60;0.60;;;3.00;99.90;;;;;;5052048;28;20382;-80